Weather at Bodø Airport

Public forecast

Using degrees Celsius for public forecast. Weather courtesy of forecast.io.

Current aviation weather report (METAR) for Bodø Airport

Retrieved 2022/05/26 16:20 UTC (23 minutes ago):

ENBO 261620Z 09017KT CAVOK 14/07 Q1000

Aviation forecast (TAF) for Bodø Airport

Retrieved 2022/05/26 12:57 UTC (4 hours ago):

TAF ENBO 261100Z 2612/2712 08009KT 9999 FEW040 BKN060 BECMG 2710/2712 33010KT